createdAt,value
2022-10-19T00:01:19.446Z,98407.25
2022-10-19T00:06:19.812Z,98409.88
2022-10-19T00:08:46.349Z,98395.13
2022-10-19T00:11:13.025Z,98408.34
2022-10-19T00:13:39.646Z,98412.28
2022-10-19T00:16:12.040Z,98414.28
2022-10-19T00:18:39.677Z,98416.25
2022-10-19T00:21:08.011Z,98416.41
2022-10-19T00:23:34.728Z,98298.09
2022-10-19T00:26:01.604Z,98409.66
2022-10-19T00:28:28.214Z,98303.66
2022-10-19T00:30:54.833Z,98290.94
2022-10-19T00:33:22.561Z,98399.41
2022-10-19T00:35:52.596Z,98443.72
2022-10-19T00:38:20.858Z,98407.25
2022-10-19T00:40:48.297Z,98420.47
2022-10-19T00:43:17.007Z,98404.94
2022-10-19T00:45:44.034Z,98400.97
2022-10-19T00:48:14.925Z,98405.81
2022-10-19T00:50:42.518Z,98408.28
2022-10-19T00:53:09.787Z,98390.41
2022-10-19T00:55:38.943Z,98403.69
2022-10-19T00:58:05.776Z,98407.78
2022-10-19T01:00:33.829Z,98306.31
2022-10-19T01:03:02.813Z,98377.03
2022-10-19T01:05:29.898Z,98401.84
2022-10-19T01:07:56.952Z,98400.69
2022-10-19T01:10:41.983Z,98398.34
2022-10-19T01:13:11.486Z,98384.94
2022-10-19T01:15:54.865Z,98399.34
2022-10-19T01:18:31.279Z,98380.47
2022-10-19T01:21:06.480Z,98392.41
2022-10-19T01:23:59.188Z,98390.91
2022-10-19T01:26:46.717Z,98388.94
2022-10-19T01:29:51.020Z,98390.06
2022-10-19T01:32:28.145Z,98359.38
2022-10-19T01:35:04.878Z,98388.97
2022-10-19T01:37:45.913Z,98384.84
2022-10-19T01:40:24.700Z,98385.31
2022-10-19T01:42:57.250Z,98379.16
2022-10-19T01:45:47.498Z,98380.59
2022-10-19T01:48:25.996Z,98379.88
2022-10-19T01:50:57.376Z,98263.41
2022-10-19T01:53:26.466Z,98259.84
2022-10-19T01:55:55.627Z,98202.94
2022-10-19T01:58:27.753Z,98303.53
2022-10-19T02:00:58.110Z,98357.31
2022-10-19T02:03:25.778Z,98366.72
2022-10-19T02:05:54.154Z,98359.81
2022-10-19T02:08:26.927Z,98361.44
2022-10-19T02:10:55.960Z,98357.00
2022-10-19T02:13:24.657Z,98354.50
2022-10-19T02:15:54.697Z,98335.69
2022-10-19T02:18:28.655Z,98343.81
2022-10-19T02:20:55.386Z,98235.03
2022-10-19T02:23:25.524Z,98348.56
2022-10-19T02:25:52.298Z,98259.81
2022-10-19T02:28:19.029Z,98189.22
2022-10-19T02:30:45.737Z,98210.69
2022-10-19T02:33:12.656Z,98338.34
2022-10-19T02:35:39.603Z,98263.81
2022-10-19T02:38:10.919Z,98326.50
2022-10-19T02:40:43.561Z,98279.47
2022-10-19T02:43:14.176Z,98109.59
2022-10-19T02:45:51.041Z,98211.72
2022-10-19T02:48:23.273Z,98320.53
2022-10-19T02:50:49.952Z,98325.47
2022-10-19T02:53:16.818Z,98199.63
2022-10-19T02:55:43.824Z,98215.19
2022-10-19T02:58:10.422Z,98316.03
2022-10-19T03:00:37.021Z,98321.66
2022-10-19T03:03:03.694Z,98324.09
2022-10-19T03:05:30.222Z,98321.03
2022-10-19T03:07:56.783Z,98317.97
2022-10-19T03:10:23.390Z,98239.22
2022-10-19T03:12:49.984Z,98316.97
2022-10-19T03:15:18.053Z,98307.75
2022-10-19T03:17:44.897Z,98199.75
2022-10-19T03:20:12.067Z,98323.06
2022-10-19T03:22:38.804Z,98284.81
2022-10-19T03:25:05.773Z,98317.44
2022-10-19T03:27:32.651Z,98322.72
2022-10-19T03:29:59.581Z,98323.28
2022-10-19T03:32:26.122Z,98325.63
2022-10-19T03:34:52.694Z,98321.75
2022-10-19T03:37:19.333Z,98328.94
2022-10-19T03:39:45.957Z,98326.63
2022-10-19T03:42:12.496Z,98315.25
2022-10-19T03:44:39.021Z,98321.84
2022-10-19T03:47:05.584Z,98289.41
2022-10-19T03:49:34.552Z,98319.56
2022-10-19T03:52:03.596Z,98321.63
2022-10-19T03:54:30.112Z,98214.66
2022-10-19T03:56:56.686Z,98330.50
2022-10-19T03:59:24.296Z,98330.81
2022-10-19T04:01:50.826Z,98277.16
2022-10-19T04:04:19.019Z,98337.38
2022-10-19T04:06:48.930Z,98337.22
2022-10-19T04:09:20.251Z,98330.66
2022-10-19T04:11:47.381Z,98246.66
2022-10-19T04:14:22.859Z,98332.53
2022-10-19T04:16:58.845Z,98300.78
2022-10-19T04:19:25.538Z,98341.72
2022-10-19T04:21:52.072Z,98267.22
2022-10-19T04:24:19.240Z,98350.09
2022-10-19T04:26:49.996Z,98212.03
2022-10-19T04:29:19.069Z,98344.03
2022-10-19T04:31:46.529Z,98337.66
2022-10-19T04:34:13.187Z,98265.00
2022-10-19T04:36:39.700Z,98346.09
2022-10-19T04:39:07.040Z,98346.72
2022-10-19T04:41:34.204Z,98347.88
2022-10-19T04:44:03.153Z,98342.25
2022-10-19T04:46:30.508Z,98196.88
2022-10-19T04:48:58.073Z,98321.66
2022-10-19T04:51:25.465Z,98330.81
2022-10-19T04:53:59.520Z,98276.56
2022-10-19T04:56:27.363Z,98320.13
2022-10-19T04:58:56.499Z,98329.53
2022-10-19T05:01:24.254Z,98322.28
2022-10-19T05:03:59.172Z,98228.03
2022-10-19T05:06:26.339Z,98323.94
2022-10-19T05:08:53.264Z,98171.13
2022-10-19T05:11:20.228Z,98320.78
2022-10-19T05:13:47.385Z,98305.53
2022-10-19T05:16:17.988Z,98316.47
2022-10-19T05:18:56.123Z,98317.81
2022-10-19T05:21:22.701Z,98120.03
2022-10-19T05:23:53.053Z,98321.91
2022-10-19T05:26:22.120Z,98318.28
2022-10-19T05:28:57.867Z,98315.66
2022-10-19T05:31:30.230Z,98260.69
2022-10-19T05:33:57.186Z,98119.97
2022-10-19T05:36:27.059Z,98233.41
2022-10-19T05:38:55.859Z,98220.25
2022-10-19T05:41:24.280Z,98315.38
2022-10-19T05:43:56.122Z,98322.31
2022-10-19T05:46:23.403Z,98318.41
2022-10-19T05:48:50.175Z,98273.69
2022-10-19T05:51:19.753Z,98314.09
2022-10-19T05:53:46.803Z,98194.03
2022-10-19T05:56:21.337Z,98254.69
2022-10-19T05:58:48.918Z,98292.06
2022-10-19T06:01:18.830Z,98314.94
2022-10-19T06:03:47.099Z,98319.06
2022-10-19T06:06:13.900Z,98319.91
2022-10-19T06:08:40.540Z,98305.16
2022-10-19T06:11:18.020Z,98322.38
2022-10-19T06:13:46.533Z,98145.28
2022-10-19T06:16:14.919Z,98312.78
2022-10-19T06:18:42.727Z,98334.44
2022-10-19T06:21:14.488Z,98329.16
2022-10-19T06:26:12.353Z,98336.69
2022-10-19T06:28:40.355Z,98289.44
2022-10-19T06:31:09.204Z,98307.44
2022-10-19T06:33:36.646Z,98277.56
2022-10-19T06:36:12.339Z,98356.47
2022-10-19T06:38:39.068Z,98155.91
2022-10-19T06:41:06.136Z,98265.13
2022-10-19T06:43:33.183Z,98364.06
2022-10-19T06:46:07.224Z,98365.28
2022-10-19T06:48:34.007Z,98235.63
2022-10-19T06:51:02.147Z,98309.66
2022-10-19T06:53:29.254Z,98370.72
2022-10-19T06:55:59.264Z,98371.50
2022-10-19T06:58:26.278Z,98379.56
2022-10-19T07:01:00.428Z,98384.63
2022-10-19T07:03:28.581Z,98227.69
2022-10-19T07:05:57.098Z,98388.00
2022-10-19T07:08:25.150Z,98238.38
2022-10-19T07:11:04.216Z,98358.81
2022-10-19T07:13:31.405Z,98384.09
2022-10-19T07:16:05.535Z,98398.25
2022-10-19T07:18:33.316Z,98274.41
2022-10-19T07:21:01.925Z,98384.97
2022-10-19T07:23:30.198Z,98395.09
2022-10-19T07:26:01.512Z,98333.38
2022-10-19T07:28:28.721Z,98386.66
2022-10-19T07:30:55.648Z,98295.91
2022-10-19T07:33:22.591Z,98300.44
2022-10-19T07:35:49.257Z,98377.59
2022-10-19T07:38:15.986Z,98381.22
2022-10-19T07:40:44.926Z,98263.94
2022-10-19T07:43:14.032Z,98355.19
2022-10-19T07:45:40.594Z,98331.28
2022-10-19T07:48:07.254Z,98350.66
2022-10-19T07:50:33.829Z,98403.94
2022-10-19T07:53:00.450Z,98395.81
2022-10-19T07:55:26.987Z,98407.78
2022-10-19T07:57:53.642Z,98402.78
2022-10-19T08:00:20.196Z,98385.88
2022-10-19T08:03:00.084Z,98310.13
2022-10-19T08:05:34.267Z,98280.69
2022-10-19T08:08:00.878Z,98403.69
2022-10-19T08:10:27.846Z,98389.94
2022-10-19T08:12:54.404Z,98402.50
2022-10-19T08:15:20.963Z,98411.44
2022-10-19T08:17:47.527Z,98263.25
2022-10-19T08:20:14.136Z,98301.00
2022-10-19T08:22:41.805Z,98298.22
2022-10-19T08:25:08.609Z,98293.81
2022-10-19T08:30:07.071Z,98409.25
2022-10-19T08:32:33.806Z,98378.53
2022-10-19T08:35:00.579Z,98351.97
2022-10-19T08:37:40.776Z,98337.09
2022-10-19T08:40:24.145Z,98445.03
2022-10-19T08:43:08.277Z,98410.09
2022-10-19T08:46:01.496Z,98405.31
2022-10-19T08:48:37.945Z,98406.97
2022-10-19T08:51:05.903Z,98328.25
2022-10-19T08:53:53.862Z,98407.28
2022-10-19T08:56:49.201Z,98411.09
2022-10-19T08:59:24.060Z,98407.00
2022-10-19T09:02:09.308Z,98406.66
2022-10-19T09:04:42.716Z,98408.00
2022-10-19T09:07:29.408Z,98406.34
2022-10-19T09:10:03.274Z,98300.06
2022-10-19T09:12:58.472Z,98403.19
2022-10-19T09:15:47.406Z,98336.56
2022-10-19T09:18:25.083Z,98401.47
2022-10-19T09:21:00.090Z,98400.63
2022-10-19T09:23:45.643Z,98398.75
2022-10-19T09:26:18.841Z,98298.16
2022-10-19T09:29:05.597Z,98405.78
2022-10-19T09:31:40.350Z,98265.72
2022-10-19T09:34:12.425Z,98399.06
2022-10-19T09:36:56.990Z,98402.31
2022-10-19T09:39:27.112Z,98400.16
2022-10-19T09:42:07.510Z,98414.13
2022-10-19T09:44:34.390Z,98405.94
2022-10-19T09:47:22.602Z,98416.03
2022-10-19T09:49:49.538Z,98415.66
2022-10-19T09:52:31.340Z,98425.56
2022-10-19T09:55:24.856Z,98423.25
2022-10-19T09:58:00.126Z,98414.63
2022-10-19T10:00:37.059Z,98415.28
2022-10-19T10:03:05.941Z,98417.59
2022-10-19T10:05:39.054Z,98412.88
2022-10-19T10:08:14.404Z,98410.44
2022-10-19T10:11:05.138Z,98285.50
2022-10-19T10:13:36.912Z,98339.03
2022-10-19T10:16:08.511Z,98415.13
2022-10-19T10:18:55.690Z,98409.09
2022-10-19T10:21:28.816Z,98410.69
2022-10-19T10:24:07.074Z,98403.53
2022-10-19T10:26:43.632Z,98406.84
2022-10-19T10:29:39.343Z,98403.53
2022-10-19T10:32:12.360Z,98400.44
2022-10-19T10:34:51.849Z,98398.88
2022-10-19T10:37:39.266Z,98402.53
2022-10-19T10:40:17.866Z,98394.47
2022-10-19T10:42:50.302Z,98391.44
2022-10-19T10:45:41.284Z,98381.09
2022-10-19T10:48:24.738Z,98394.38
2022-10-19T10:50:52.053Z,98372.19
2022-10-19T10:53:37.080Z,98392.00
2022-10-19T10:56:06.094Z,98380.72
2022-10-19T10:58:44.356Z,98373.69
2022-10-19T11:01:23.064Z,98238.06
2022-10-19T11:04:04.249Z,98344.28
2022-10-19T11:06:33.250Z,98368.97
2022-10-19T11:09:18.272Z,98236.25
2022-10-19T11:11:50.684Z,98317.66
2022-10-19T11:14:32.128Z,98364.84
2022-10-19T11:17:22.966Z,98317.09
2022-10-19T11:19:51.352Z,98351.34
2022-10-19T11:22:36.907Z,98338.56
2022-10-19T11:25:12.539Z,98335.41
2022-10-19T11:28:00.867Z,98330.56
2022-10-19T11:30:31.994Z,98327.50
2022-10-19T11:33:05.739Z,98324.75
2022-10-19T11:35:52.822Z,98205.59
2022-10-19T11:38:31.193Z,98316.88
2022-10-19T11:41:29.461Z,98318.78
2022-10-19T11:44:26.752Z,98325.50
2022-10-19T11:47:23.550Z,98315.91
2022-10-19T11:50:02.048Z,98234.72
2022-10-19T11:52:34.720Z,98303.72
2022-10-19T11:55:49.125Z,98294.34
2022-10-19T11:58:38.515Z,98290.31
2022-10-19T12:01:05.136Z,98289.59
2022-10-19T12:04:05.883Z,98283.25
2022-10-19T12:06:48.733Z,98283.38
2022-10-19T12:09:47.741Z,98286.97
2022-10-19T12:12:30.843Z,98288.44
2022-10-19T12:15:13.502Z,98296.03
2022-10-19T12:17:45.014Z,98200.19
2022-10-19T12:20:37.239Z,98283.13
2022-10-19T12:23:21.563Z,98181.56
2022-10-19T12:25:49.733Z,98281.22
2022-10-19T12:28:26.694Z,98273.06
2022-10-19T12:30:54.622Z,98270.06
2022-10-19T12:33:29.007Z,98255.13
2022-10-19T12:36:12.221Z,98263.28
2022-10-19T12:39:00.817Z,98147.22
2022-10-19T12:41:41.153Z,98252.91
2022-10-19T12:44:43.980Z,98256.50
2022-10-19T12:47:18.794Z,98248.59
2022-10-19T12:49:51.089Z,98259.88
2022-10-19T12:52:48.088Z,98245.59
2022-10-19T12:55:17.525Z,98239.66
2022-10-19T12:57:48.246Z,98170.38
2022-10-19T13:00:23.365Z,98228.69
2022-10-19T13:03:07.464Z,98228.22
2022-10-19T13:05:35.614Z,98223.00
2022-10-19T13:08:06.921Z,98155.75
2022-10-19T13:10:35.852Z,98059.63
2022-10-19T13:13:03.139Z,98223.28
2022-10-19T13:15:35.822Z,98216.22
2022-10-19T13:18:03.190Z,98221.72
2022-10-19T13:20:29.826Z,98218.81
2022-10-19T13:22:59.417Z,98218.44
2022-10-19T13:25:27.978Z,98214.31
2022-10-19T13:28:02.323Z,98213.50
2022-10-19T13:30:38.414Z,98206.56
2022-10-19T13:33:29.883Z,98204.88
2022-10-19T13:35:59.081Z,98204.34
2022-10-19T13:38:29.899Z,98214.31
2022-10-19T13:40:56.438Z,98209.59
2022-10-19T13:43:28.687Z,98190.44
2022-10-19T13:46:21.588Z,98202.59
2022-10-19T13:49:20.557Z,98195.84
2022-10-19T13:52:22.637Z,98202.97
2022-10-19T13:54:55.453Z,98196.00
2022-10-19T13:57:50.026Z,98188.44
2022-10-19T14:00:36.639Z,98018.91
2022-10-19T14:03:29.011Z,98193.53
2022-10-19T14:06:13.036Z,98188.50
2022-10-19T14:09:13.706Z,98182.53
2022-10-19T14:11:44.460Z,98182.16
2022-10-19T14:14:10.952Z,98181.19
2022-10-19T14:17:03.789Z,98172.19
2022-10-19T14:19:46.137Z,98165.44
2022-10-19T14:22:38.528Z,98164.81
2022-10-19T14:25:21.715Z,98155.47
2022-10-19T14:27:56.675Z,98036.03
2022-10-19T14:30:26.909Z,98166.91
2022-10-19T14:32:56.874Z,97978.97
2022-10-19T14:35:36.496Z,98014.19
2022-10-19T14:38:06.118Z,98159.19
2022-10-19T14:40:37.524Z,98145.56
2022-10-19T14:43:29.937Z,98137.91
2022-10-19T14:46:08.453Z,98146.88
2022-10-19T14:48:36.820Z,98137.53
2022-10-19T14:51:10.002Z,98108.63
2022-10-19T14:53:45.425Z,98150.59
2022-10-19T14:56:31.408Z,98148.13
2022-10-19T14:59:07.425Z,98149.03
2022-10-19T15:01:35.514Z,98133.41
2022-10-19T15:04:02.455Z,98035.81
2022-10-19T15:06:32.960Z,98123.38
2022-10-19T15:09:03.494Z,98151.84
2022-10-19T15:11:36.522Z,98151.56
2022-10-19T15:14:12.802Z,98148.97
2022-10-19T15:16:39.279Z,98146.84
2022-10-19T15:19:14.296Z,98145.91
2022-10-19T15:21:40.836Z,98118.13
2022-10-19T15:24:21.240Z,98147.34
2022-10-19T15:27:06.618Z,98148.06
2022-10-19T15:29:35.596Z,98050.59
2022-10-19T15:32:16.686Z,98152.13
2022-10-19T15:34:45.062Z,98150.00
2022-10-19T15:37:19.910Z,98142.59
2022-10-19T15:39:47.341Z,98000.63
2022-10-19T15:42:49.676Z,98136.56
2022-10-19T15:45:36.692Z,98078.13
2022-10-19T15:48:21.644Z,98142.44
2022-10-19T15:50:49.853Z,98007.16
2022-10-19T15:53:16.769Z,98137.94
2022-10-19T15:55:43.361Z,98142.41
2022-10-19T15:58:16.060Z,98142.97
2022-10-19T16:00:42.990Z,98100.91
2022-10-19T16:03:09.602Z,98139.72
2022-10-19T16:05:36.534Z,98105.72
2022-10-19T16:08:03.550Z,98120.28
2022-10-19T16:10:30.082Z,98091.09
2022-10-19T16:12:56.713Z,98133.63
2022-10-19T16:15:23.686Z,98132.81
2022-10-19T16:17:55.147Z,98127.56
2022-10-19T16:20:23.544Z,98125.91
2022-10-19T16:22:50.907Z,98110.25
2022-10-19T16:25:17.970Z,98121.44
2022-10-19T16:27:44.522Z,97991.75
2022-10-19T16:30:11.652Z,98110.56
2022-10-19T16:32:39.861Z,97993.88
2022-10-19T16:35:08.450Z,98096.13
2022-10-19T16:37:35.328Z,97982.22
2022-10-19T16:40:02.101Z,98040.44
2022-10-19T16:42:30.539Z,97919.91
2022-10-19T16:44:57.278Z,98013.75
2022-10-19T16:47:23.796Z,98010.72
2022-10-19T16:49:58.248Z,98132.50
2022-10-19T16:52:24.807Z,98133.44
2022-10-19T16:54:51.337Z,98132.88
2022-10-19T16:57:17.992Z,98014.63
2022-10-19T16:59:44.764Z,98136.25
2022-10-19T17:02:11.846Z,98130.09
2022-10-19T17:04:38.928Z,98134.34
2022-10-19T17:07:05.480Z,98136.59
2022-10-19T17:09:49.689Z,97995.66
2022-10-19T17:12:18.646Z,98130.41
2022-10-19T17:14:45.253Z,98127.56
2022-10-19T17:17:12.073Z,98127.94
2022-10-19T17:19:38.943Z,98132.38
2022-10-19T17:22:05.756Z,98067.09
2022-10-19T17:24:32.507Z,97936.88
2022-10-19T17:27:03.012Z,98128.91
2022-10-19T17:29:29.975Z,98149.72
2022-10-19T17:31:56.600Z,98136.19
2022-10-19T17:34:23.193Z,98141.88
2022-10-19T17:36:49.881Z,98133.94
2022-10-19T17:39:25.649Z,98144.91
2022-10-19T17:42:01.253Z,97987.91
2022-10-19T17:44:29.951Z,98048.53
2022-10-19T17:46:56.511Z,98000.47
2022-10-19T17:49:23.450Z,97984.81
2022-10-19T17:51:52.895Z,97972.56
2022-10-19T17:54:19.507Z,98024.88
2022-10-19T17:56:46.238Z,98146.50
2022-10-19T17:59:13.363Z,98139.03
2022-10-19T18:01:40.361Z,97980.34
2022-10-19T18:04:06.964Z,98052.44
2022-10-19T18:06:36.209Z,98080.84
2022-10-19T18:09:05.728Z,98135.69
2022-10-19T18:11:36.992Z,98008.78
2022-10-19T18:14:05.910Z,97991.00
2022-10-19T18:16:35.232Z,98050.41
2022-10-19T18:19:03.226Z,98139.91
2022-10-19T18:21:33.645Z,98045.22
2022-10-19T18:24:02.535Z,98143.94
2022-10-19T18:26:31.761Z,98141.59
2022-10-19T18:28:59.647Z,97955.75
2022-10-19T18:31:32.038Z,98138.84
2022-10-19T18:34:03.131Z,98111.16
2022-10-19T18:36:31.131Z,98075.16
2022-10-19T18:39:02.692Z,98042.88
2022-10-19T18:41:29.762Z,98131.56
2022-10-19T18:43:59.318Z,98127.44
2022-10-19T18:46:26.576Z,98123.44
2022-10-19T18:48:53.825Z,98127.31
2022-10-19T18:51:22.059Z,98131.03
2022-10-19T18:53:49.089Z,98127.88
2022-10-19T18:56:18.841Z,98126.38
2022-10-19T18:58:45.683Z,97972.22
2022-10-19T19:01:17.907Z,98123.06
2022-10-19T19:03:47.125Z,98084.84
2022-10-19T19:06:16.480Z,98118.94
2022-10-19T19:11:18.602Z,98113.84
2022-10-19T19:13:50.738Z,98117.53
2022-10-19T19:16:17.751Z,98039.63
2022-10-19T19:18:44.521Z,98125.41
2022-10-19T19:21:23.316Z,98125.84
2022-10-19T19:23:51.493Z,98030.41
2022-10-19T19:26:19.477Z,98120.72
2022-10-19T19:28:49.026Z,98022.53
2022-10-19T19:31:18.400Z,98130.22
2022-10-19T19:33:46.970Z,98123.63
2022-10-19T19:36:15.681Z,98123.91
2022-10-19T19:38:42.678Z,98090.09
2022-10-19T19:41:12.430Z,98134.91
2022-10-19T19:43:39.555Z,98075.72
2022-10-19T19:46:09.487Z,98137.25
2022-10-19T19:48:37.039Z,98134.22
2022-10-19T19:51:03.822Z,98137.94
2022-10-19T19:53:30.964Z,98131.69
2022-10-19T19:55:57.522Z,98027.25
2022-10-19T19:58:24.077Z,98064.63
2022-10-19T20:00:50.699Z,98151.72
2022-10-19T20:03:17.267Z,98137.94
2022-10-19T20:05:43.804Z,98010.97
2022-10-19T20:08:11.228Z,98128.66
2022-10-19T20:10:39.712Z,98143.69
2022-10-19T20:13:06.309Z,98074.97
2022-10-19T20:15:33.045Z,98023.91
2022-10-19T20:17:59.650Z,98138.56
2022-10-19T20:20:26.301Z,98095.22
2022-10-19T20:22:52.961Z,98139.22
2022-10-19T20:25:19.609Z,98146.66
2022-10-19T20:27:46.224Z,98143.75
2022-10-19T20:30:12.918Z,98139.84
2022-10-19T20:32:39.556Z,98137.50
2022-10-19T20:35:07.323Z,98120.66
2022-10-19T20:37:34.303Z,98148.75
2022-10-19T20:40:07.445Z,98097.34
2022-10-19T20:42:36.139Z,98115.19
2022-10-19T20:45:03.346Z,98072.19
2022-10-19T20:47:30.049Z,98142.06
2022-10-19T20:49:56.639Z,98014.75
2022-10-19T20:52:23.301Z,98132.22
2022-10-19T20:54:49.885Z,98131.66
2022-10-19T20:57:16.451Z,98133.69
2022-10-19T20:59:43.971Z,98102.56
2022-10-19T21:02:11.061Z,97873.66
2022-10-19T21:04:37.772Z,98128.44
2022-10-19T21:07:05.037Z,98070.44
2022-10-19T21:09:31.928Z,98041.94
2022-10-19T21:11:58.566Z,98121.63
2022-10-19T21:14:30.030Z,98012.06
2022-10-19T21:16:57.723Z,98119.75
2022-10-19T21:19:26.127Z,98115.50
2022-10-19T21:21:55.838Z,98117.53
2022-10-19T21:24:28.471Z,98115.91
2022-10-19T21:26:55.359Z,97959.91
2022-10-19T21:29:21.982Z,97976.59
2022-10-19T21:31:52.095Z,97929.63
2022-10-19T21:34:26.802Z,98113.91
2022-10-19T21:36:54.031Z,97965.34
2022-10-19T21:39:21.278Z,98123.38
2022-10-19T21:41:48.358Z,98120.09
2022-10-19T21:44:17.027Z,98114.97
2022-10-19T21:46:46.690Z,98070.09
2022-10-19T21:49:13.269Z,98034.69
2022-10-19T21:51:44.530Z,98089.03
2022-10-19T21:54:13.429Z,98102.88
2022-10-19T21:56:40.061Z,98103.94
2022-10-19T21:59:06.749Z,98104.66
2022-10-19T22:01:38.618Z,97992.19
2022-10-19T22:04:11.734Z,98098.03
2022-10-19T22:06:39.265Z,98116.47
2022-10-19T22:09:08.325Z,98098.28
2022-10-19T22:11:34.962Z,97976.34
2022-10-19T22:14:03.081Z,98087.00
2022-10-19T22:16:31.101Z,98094.00
2022-10-19T22:18:57.925Z,97963.91
2022-10-19T22:21:30.584Z,97951.53
2022-10-19T22:24:03.496Z,97949.50
2022-10-19T22:26:35.559Z,98083.50
2022-10-19T22:29:04.103Z,98069.28
2022-10-19T22:31:31.922Z,98029.50
2022-10-19T22:34:00.862Z,98093.59
2022-10-19T22:36:27.439Z,97998.66
2022-10-19T22:38:55.049Z,97924.13
2022-10-19T22:41:21.563Z,97958.56
2022-10-19T22:43:48.220Z,97946.34
2022-10-19T22:46:14.784Z,97873.72
2022-10-19T22:48:41.346Z,98046.72
2022-10-19T22:51:07.992Z,98081.78
2022-10-19T22:53:34.657Z,98081.06
2022-10-19T22:56:01.470Z,97928.53
2022-10-19T22:58:28.125Z,97983.09
2022-10-19T23:01:06.595Z,98078.13
2022-10-19T23:03:33.831Z,97938.72
2022-10-19T23:06:00.419Z,98044.06
2022-10-19T23:08:27.121Z,98087.78
2022-10-19T23:10:53.781Z,97900.50
2022-10-19T23:13:20.755Z,98084.59
2022-10-19T23:15:47.580Z,98087.59
2022-10-19T23:18:14.161Z,98085.09
2022-10-19T23:20:40.880Z,98042.44
2022-10-19T23:23:07.645Z,98064.81
2022-10-19T23:25:34.275Z,98090.78
2022-10-19T23:28:00.834Z,97937.66
2022-10-19T23:30:27.580Z,97936.34
2022-10-19T23:32:54.178Z,98021.00
2022-10-19T23:35:20.690Z,98064.09
2022-10-19T23:37:47.258Z,98079.03
2022-10-19T23:40:13.825Z,98073.13
2022-10-19T23:42:40.557Z,97977.34
2022-10-19T23:45:07.411Z,97900.56
2022-10-19T23:47:34.187Z,98076.59
2022-10-19T23:50:01.030Z,97933.34
2022-10-19T23:52:28.474Z,98063.91
2022-10-19T23:54:55.048Z,98027.69
2022-10-19T23:57:21.571Z,97940.06
2022-10-19T23:59:48.142Z,98063.81
